sensor_id;sensor_type;location;lat;lon;timestamp;P1;durP1;ratioP1;P2;durP2;ratioP2
76807;SDS011;65758;45.458;11.062;2023-02-15T00:04:24;40.10;;;20.00;;
76807;SDS011;65758;45.458;11.062;2023-02-15T00:07:11;35.80;;;20.20;;
76807;SDS011;65758;45.458;11.062;2023-02-15T00:09:38;40.00;;;20.70;;
76807;SDS011;65758;45.458;11.062;2023-02-15T00:14:32;38.40;;;19.40;;
76807;SDS011;65758;45.458;11.062;2023-02-15T00:16:58;40.40;;;19.60;;
76807;SDS011;65758;45.458;11.062;2023-02-15T00:19:26;36.80;;;20.70;;
76807;SDS011;65758;45.458;11.062;2023-02-15T00:21:52;45.30;;;23.30;;
76807;SDS011;65758;45.458;11.062;2023-02-15T00:26:46;53.80;;;31.30;;
76807;SDS011;65758;45.458;11.062;2023-02-15T00:29:15;57.60;;;31.50;;
76807;SDS011;65758;45.458;11.062;2023-02-15T00:31:43;58.80;;;31.60;;
76807;SDS011;65758;45.458;11.062;2023-02-15T00:34:13;53.20;;;31.30;;
76807;SDS011;65758;45.458;11.062;2023-02-15T00:36:45;63.40;;;33.00;;
76807;SDS011;65758;45.458;11.062;2023-02-15T00:39:13;65.20;;;32.10;;
76807;SDS011;65758;45.458;11.062;2023-02-15T00:41:42;61.90;;;32.00;;
76807;SDS011;65758;45.458;11.062;2023-02-15T00:44:10;56.20;;;30.60;;
76807;SDS011;65758;45.458;11.062;2023-02-15T00:46:38;48.90;;;27.20;;
76807;SDS011;65758;45.458;11.062;2023-02-15T00:49:08;44.40;;;24.70;;
76807;SDS011;65758;45.458;11.062;2023-02-15T00:51:36;41.00;;;23.50;;
76807;SDS011;65758;45.458;11.062;2023-02-15T00:56:29;40.50;;;20.70;;
76807;SDS011;65758;45.458;11.062;2023-02-15T00:58:56;46.40;;;21.10;;
76807;SDS011;65758;45.458;11.062;2023-02-15T01:01:23;36.00;;;20.00;;
76807;SDS011;65758;45.458;11.062;2023-02-15T01:03:52;44.50;;;22.00;;
76807;SDS011;65758;45.458;11.062;2023-02-15T01:06:19;37.40;;;19.50;;
76807;SDS011;65758;45.458;11.062;2023-02-15T01:08:47;41.80;;;20.70;;
76807;SDS011;65758;45.458;11.062;2023-02-15T01:11:15;46.60;;;21.70;;
76807;SDS011;65758;45.458;11.062;2023-02-15T01:13:59;44.10;;;19.50;;
76807;SDS011;65758;45.458;11.062;2023-02-15T01:16:26;41.40;;;22.80;;
76807;SDS011;65758;45.458;11.062;2023-02-15T01:18:54;37.30;;;20.30;;
76807;SDS011;65758;45.458;11.062;2023-02-15T01:21:23;43.00;;;19.90;;
76807;SDS011;65758;45.458;11.062;2023-02-15T01:23:51;46.70;;;22.30;;
76807;SDS011;65758;45.458;11.062;2023-02-15T01:26:18;40.60;;;21.90;;
76807;SDS011;65758;45.458;11.062;2023-02-15T01:28:45;40.50;;;21.20;;
76807;SDS011;65758;45.458;11.062;2023-02-15T01:31:13;53.60;;;23.50;;
76807;SDS011;65758;45.458;11.062;2023-02-15T01:33:44;41.70;;;22.20;;
76807;SDS011;65758;45.458;11.062;2023-02-15T01:36:11;40.40;;;22.70;;
76807;SDS011;65758;45.458;11.062;2023-02-15T01:38:38;51.30;;;25.10;;
76807;SDS011;65758;45.458;11.062;2023-02-15T01:41:06;65.50;;;28.60;;
76807;SDS011;65758;45.458;11.062;2023-02-15T01:43:48;56.30;;;29.70;;
76807;SDS011;65758;45.458;11.062;2023-02-15T01:49:08;48.20;;;22.90;;
76807;SDS011;65758;45.458;11.062;2023-02-15T01:51:45;47.50;;;26.80;;
76807;SDS011;65758;45.458;11.062;2023-02-15T01:54:19;51.50;;;27.00;;
76807;SDS011;65758;45.458;11.062;2023-02-15T01:56:51;48.20;;;26.80;;
76807;SDS011;65758;45.458;11.062;2023-02-15T01:59:21;39.40;;;23.10;;
76807;SDS011;65758;45.458;11.062;2023-02-15T02:01:51;42.70;;;23.10;;
76807;SDS011;65758;45.458;11.062;2023-02-15T02:07:00;43.00;;;23.20;;
76807;SDS011;65758;45.458;11.062;2023-02-15T02:09:27;38.20;;;21.00;;
76807;SDS011;65758;45.458;11.062;2023-02-15T02:11:55;38.90;;;21.70;;
76807;SDS011;65758;45.458;11.062;2023-02-15T02:14:22;38.60;;;20.60;;
76807;SDS011;65758;45.458;11.062;2023-02-15T02:30:35;39.20;;;19.60;;
76807;SDS011;65758;45.458;11.062;2023-02-15T02:33:20;37.20;;;19.50;;
76807;SDS011;65758;45.458;11.062;2023-02-15T02:38:39;37.80;;;20.40;;
76807;SDS011;65758;45.458;11.062;2023-02-15T02:46:52;38.30;;;19.40;;
76807;SDS011;65758;45.458;11.062;2023-02-15T02:49:31;38.40;;;20.30;;
76807;SDS011;65758;45.458;11.062;2023-02-15T02:52:01;35.80;;;20.20;;
76807;SDS011;65758;45.458;11.062;2023-02-15T02:54:32;31.70;;;20.00;;
76807;SDS011;65758;45.458;11.062;2023-02-15T02:57:03;36.90;;;19.00;;
76807;SDS011;65758;45.458;11.062;2023-02-15T02:59:39;35.80;;;19.10;;
76807;SDS011;65758;45.458;11.062;2023-02-15T03:02:13;35.70;;;19.40;;
76807;SDS011;65758;45.458;11.062;2023-02-15T03:04:48;46.60;;;21.60;;
76807;SDS011;65758;45.458;11.062;2023-02-15T03:07:25;41.60;;;20.70;;
76807;SDS011;65758;45.458;11.062;2023-02-15T03:09:57;39.60;;;20.90;;
76807;SDS011;65758;45.458;11.062;2023-02-15T03:12:43;39.70;;;19.40;;
76807;SDS011;65758;45.458;11.062;2023-02-15T03:15:12;44.40;;;19.40;;
76807;SDS011;65758;45.458;11.062;2023-02-15T03:17:48;36.40;;;19.00;;
76807;SDS011;65758;45.458;11.062;2023-02-15T03:20:26;32.20;;;16.90;;
76807;SDS011;65758;45.458;11.062;2023-02-15T03:23:01;37.70;;;17.80;;
76807;SDS011;65758;45.458;11.062;2023-02-15T03:25:38;32.40;;;16.40;;
76807;SDS011;65758;45.458;11.062;2023-02-15T03:28:10;35.00;;;16.80;;
76807;SDS011;65758;45.458;11.062;2023-02-15T03:30:44;29.30;;;16.40;;
76807;SDS011;65758;45.458;11.062;2023-02-15T03:33:15;31.20;;;14.50;;
76807;SDS011;65758;45.458;11.062;2023-02-15T03:38:17;27.60;;;14.60;;
76807;SDS011;65758;45.458;11.062;2023-02-15T03:40:52;29.20;;;15.70;;
76807;SDS011;65758;45.458;11.062;2023-02-15T03:46:23;32.80;;;16.10;;
76807;SDS011;65758;45.458;11.062;2023-02-15T03:48:57;28.00;;;15.10;;
76807;SDS011;65758;45.458;11.062;2023-02-15T03:51:32;29.20;;;14.60;;
76807;SDS011;65758;45.458;11.062;2023-02-15T03:54:06;28.90;;;16.30;;
76807;SDS011;65758;45.458;11.062;2023-02-15T03:57:10;26.40;;;14.10;;
76807;SDS011;65758;45.458;11.062;2023-02-15T04:00:19;32.50;;;14.90;;
76807;SDS011;65758;45.458;11.062;2023-02-15T04:05:43;25.10;;;13.50;;
76807;SDS011;65758;45.458;11.062;2023-02-15T04:08:11;29.60;;;15.90;;
76807;SDS011;65758;45.458;11.062;2023-02-15T04:10:39;31.50;;;15.20;;
76807;SDS011;65758;45.458;11.062;2023-02-15T04:13:19;27.30;;;13.90;;
76807;SDS011;65758;45.458;11.062;2023-02-15T04:15:47;26.50;;;14.40;;
76807;SDS011;65758;45.458;11.062;2023-02-15T04:18:36;28.80;;;15.80;;
76807;SDS011;65758;45.458;11.062;2023-02-15T04:21:24;27.80;;;14.80;;
76807;SDS011;65758;45.458;11.062;2023-02-15T04:24:11;29.20;;;14.60;;
76807;SDS011;65758;45.458;11.062;2023-02-15T04:26:57;27.70;;;13.90;;
76807;SDS011;65758;45.458;11.062;2023-02-15T04:29:25;26.80;;;13.70;;
76807;SDS011;65758;45.458;11.062;2023-02-15T04:31:54;28.00;;;14.10;;
76807;SDS011;65758;45.458;11.062;2023-02-15T04:34:22;30.30;;;14.90;;
76807;SDS011;65758;45.458;11.062;2023-02-15T04:36:49;30.30;;;14.60;;
76807;SDS011;65758;45.458;11.062;2023-02-15T04:39:17;26.30;;;15.50;;
76807;SDS011;65758;45.458;11.062;2023-02-15T04:41:45;26.30;;;14.30;;
76807;SDS011;65758;45.458;11.062;2023-02-15T04:44:12;31.30;;;16.70;;
76807;SDS011;65758;45.458;11.062;2023-02-15T04:49:05;48.40;;;19.70;;
76807;SDS011;65758;45.458;11.062;2023-02-15T04:51:32;36.40;;;20.40;;
76807;SDS011;65758;45.458;11.062;2023-02-15T04:56:25;33.30;;;16.30;;
76807;SDS011;65758;45.458;11.062;2023-02-15T05:01:18;36.40;;;20.20;;
76807;SDS011;65758;45.458;11.062;2023-02-15T05:03:45;43.60;;;23.30;;
76807;SDS011;65758;45.458;11.062;2023-02-15T05:06:12;39.70;;;21.60;;
76807;SDS011;65758;45.458;11.062;2023-02-15T05:11:06;40.70;;;20.70;;
76807;SDS011;65758;45.458;11.062;2023-02-15T05:13:32;40.50;;;20.40;;
76807;SDS011;65758;45.458;11.062;2023-02-15T05:18:26;39.50;;;19.90;;
76807;SDS011;65758;45.458;11.062;2023-02-15T05:23:20;37.90;;;19.50;;
76807;SDS011;65758;45.458;11.062;2023-02-15T05:28:32;34.70;;;17.60;;
76807;SDS011;65758;45.458;11.062;2023-02-15T05:31:02;42.30;;;20.00;;
76807;SDS011;65758;45.458;11.062;2023-02-15T05:33:29;41.10;;;20.40;;
76807;SDS011;65758;45.458;11.062;2023-02-15T05:35:57;42.60;;;19.60;;
76807;SDS011;65758;45.458;11.062;2023-02-15T05:38:24;49.10;;;22.00;;
76807;SDS011;65758;45.458;11.062;2023-02-15T05:40:51;39.10;;;20.30;;
76807;SDS011;65758;45.458;11.062;2023-02-15T05:43:18;37.20;;;19.90;;
76807;SDS011;65758;45.458;11.062;2023-02-15T05:45:46;34.30;;;18.60;;
76807;SDS011;65758;45.458;11.062;2023-02-15T05:48:15;37.60;;;20.70;;
76807;SDS011;65758;45.458;11.062;2023-02-15T05:50:42;35.50;;;18.80;;
76807;SDS011;65758;45.458;11.062;2023-02-15T05:53:09;39.20;;;20.50;;
76807;SDS011;65758;45.458;11.062;2023-02-15T05:55:37;42.60;;;21.00;;
76807;SDS011;65758;45.458;11.062;2023-02-15T05:58:05;36.00;;;19.30;;
76807;SDS011;65758;45.458;11.062;2023-02-15T06:00:33;35.80;;;18.20;;
76807;SDS011;65758;45.458;11.062;2023-02-15T06:03:03;49.70;;;22.40;;
76807;SDS011;65758;45.458;11.062;2023-02-15T06:07:56;43.70;;;19.60;;
76807;SDS011;65758;45.458;11.062;2023-02-15T06:10:23;67.00;;;24.10;;
76807;SDS011;65758;45.458;11.062;2023-02-15T06:15:16;48.40;;;20.20;;
76807;SDS011;65758;45.458;11.062;2023-02-15T06:20:10;45.10;;;20.20;;
76807;SDS011;65758;45.458;11.062;2023-02-15T06:22:37;54.90;;;23.10;;
76807;SDS011;65758;45.458;11.062;2023-02-15T06:25:04;45.90;;;20.80;;
76807;SDS011;65758;45.458;11.062;2023-02-15T06:27:31;40.60;;;19.80;;
76807;SDS011;65758;45.458;11.062;2023-02-15T06:29:58;48.70;;;19.60;;
76807;SDS011;65758;45.458;11.062;2023-02-15T06:34:51;41.40;;;17.90;;
76807;SDS011;65758;45.458;11.062;2023-02-15T06:39:44;37.80;;;17.70;;
76807;SDS011;65758;45.458;11.062;2023-02-15T06:44:38;32.80;;;16.90;;
76807;SDS011;65758;45.458;11.062;2023-02-15T06:49:31;40.00;;;17.70;;
76807;SDS011;65758;45.458;11.062;2023-02-15T06:51:58;38.60;;;18.80;;
76807;SDS011;65758;45.458;11.062;2023-02-15T06:56:51;39.90;;;19.00;;
76807;SDS011;65758;45.458;11.062;2023-02-15T06:59:18;38.80;;;20.30;;
76807;SDS011;65758;45.458;11.062;2023-02-15T07:01:44;51.30;;;21.30;;
76807;SDS011;65758;45.458;11.062;2023-02-15T07:04:11;41.50;;;20.70;;
76807;SDS011;65758;45.458;11.062;2023-02-15T07:06:38;45.90;;;22.20;;
76807;SDS011;65758;45.458;11.062;2023-02-15T07:09:05;41.20;;;22.20;;
76807;SDS011;65758;45.458;11.062;2023-02-15T07:11:32;43.10;;;21.40;;
76807;SDS011;65758;45.458;11.062;2023-02-15T07:14:18;41.00;;;19.30;;
76807;SDS011;65758;45.458;11.062;2023-02-15T07:16:45;40.50;;;19.80;;
76807;SDS011;65758;45.458;11.062;2023-02-15T07:19:12;41.10;;;19.90;;
76807;SDS011;65758;45.458;11.062;2023-02-15T07:24:06;36.50;;;19.70;;
76807;SDS011;65758;45.458;11.062;2023-02-15T07:28:59;38.90;;;20.80;;
76807;SDS011;65758;45.458;11.062;2023-02-15T07:33:53;45.50;;;21.80;;
76807;SDS011;65758;45.458;11.062;2023-02-15T07:36:19;46.50;;;23.80;;
76807;SDS011;65758;45.458;11.062;2023-02-15T07:38:46;43.80;;;23.70;;
76807;SDS011;65758;45.458;11.062;2023-02-15T07:43:41;41.80;;;20.90;;
76807;SDS011;65758;45.458;11.062;2023-02-15T07:46:11;49.10;;;24.50;;
76807;SDS011;65758;45.458;11.062;2023-02-15T07:48:39;40.10;;;21.10;;
76807;SDS011;65758;45.458;11.062;2023-02-15T07:51:08;43.50;;;22.90;;
76807;SDS011;65758;45.458;11.062;2023-02-15T07:53:36;41.90;;;21.50;;
76807;SDS011;65758;45.458;11.062;2023-02-15T07:56:05;42.60;;;20.70;;
76807;SDS011;65758;45.458;11.062;2023-02-15T07:58:35;45.00;;;22.40;;
76807;SDS011;65758;45.458;11.062;2023-02-15T08:01:19;42.60;;;21.80;;
76807;SDS011;65758;45.458;11.062;2023-02-15T08:03:48;44.40;;;21.80;;
76807;SDS011;65758;45.458;11.062;2023-02-15T08:06:15;43.90;;;21.00;;
76807;SDS011;65758;45.458;11.062;2023-02-15T08:08:42;43.70;;;20.50;;
76807;SDS011;65758;45.458;11.062;2023-02-15T08:11:17;40.70;;;21.00;;
76807;SDS011;65758;45.458;11.062;2023-02-15T08:13:53;43.20;;;19.60;;
76807;SDS011;65758;45.458;11.062;2023-02-15T08:19:13;36.30;;;19.00;;
76807;SDS011;65758;45.458;11.062;2023-02-15T08:21:44;43.50;;;21.50;;
76807;SDS011;65758;45.458;11.062;2023-02-15T08:24:13;42.00;;;20.80;;
76807;SDS011;65758;45.458;11.062;2023-02-15T08:26:41;36.90;;;19.80;;
76807;SDS011;65758;45.458;11.062;2023-02-15T08:29:11;40.50;;;21.40;;
76807;SDS011;65758;45.458;11.062;2023-02-15T08:34:05;50.00;;;22.80;;
76807;SDS011;65758;45.458;11.062;2023-02-15T08:36:32;41.00;;;22.70;;
76807;SDS011;65758;45.458;11.062;2023-02-15T08:39:00;40.90;;;21.70;;
76807;SDS011;65758;45.458;11.062;2023-02-15T08:41:31;44.50;;;24.40;;
76807;SDS011;65758;45.458;11.062;2023-02-15T08:44:03;43.60;;;21.80;;
76807;SDS011;65758;45.458;11.062;2023-02-15T08:46:33;49.60;;;26.40;;
76807;SDS011;65758;45.458;11.062;2023-02-15T08:49:02;44.70;;;23.80;;
76807;SDS011;65758;45.458;11.062;2023-02-15T08:51:30;39.10;;;22.00;;
76807;SDS011;65758;45.458;11.062;2023-02-15T08:54:00;41.50;;;23.30;;
76807;SDS011;65758;45.458;11.062;2023-02-15T08:56:31;40.40;;;22.10;;
76807;SDS011;65758;45.458;11.062;2023-02-15T08:59:00;39.20;;;21.20;;
76807;SDS011;65758;45.458;11.062;2023-02-15T09:01:28;38.50;;;22.60;;
76807;SDS011;65758;45.458;11.062;2023-02-15T09:03:59;36.80;;;19.20;;
76807;SDS011;65758;45.458;11.062;2023-02-15T09:06:37;37.50;;;21.70;;
76807;SDS011;65758;45.458;11.062;2023-02-15T09:09:04;40.80;;;22.50;;
76807;SDS011;65758;45.458;11.062;2023-02-15T09:11:33;43.80;;;23.10;;
76807;SDS011;65758;45.458;11.062;2023-02-15T09:14:03;44.60;;;23.80;;
76807;SDS011;65758;45.458;11.062;2023-02-15T09:16:32;41.60;;;22.50;;
76807;SDS011;65758;45.458;11.062;2023-02-15T09:19:01;41.40;;;21.50;;
76807;SDS011;65758;45.458;11.062;2023-02-15T09:21:31;48.20;;;24.50;;
76807;SDS011;65758;45.458;11.062;2023-02-15T09:24:00;43.30;;;22.30;;
76807;SDS011;65758;45.458;11.062;2023-02-15T09:26:29;40.80;;;21.40;;
76807;SDS011;65758;45.458;11.062;2023-02-15T09:28:58;38.50;;;21.90;;
76807;SDS011;65758;45.458;11.062;2023-02-15T09:31:28;38.60;;;22.20;;
76807;SDS011;65758;45.458;11.062;2023-02-15T09:33:57;43.30;;;22.30;;
76807;SDS011;65758;45.458;11.062;2023-02-15T09:36:29;32.20;;;18.60;;
76807;SDS011;65758;45.458;11.062;2023-02-15T09:39:03;40.50;;;22.70;;
76807;SDS011;65758;45.458;11.062;2023-02-15T09:56:09;45.00;;;23.10;;
76807;SDS011;65758;45.458;11.062;2023-02-15T10:21:23;39.70;;;22.00;;
76807;SDS011;65758;45.458;11.062;2023-02-15T10:23:43;39.50;;;22.00;;
76807;SDS011;65758;45.458;11.062;2023-02-15T10:28:50;41.60;;;24.00;;
76807;SDS011;65758;45.458;11.062;2023-02-15T10:34:04;51.40;;;26.70;;
76807;SDS011;65758;45.458;11.062;2023-02-15T10:36:43;39.10;;;22.10;;
76807;SDS011;65758;45.458;11.062;2023-02-15T10:47:29;47.60;;;28.40;;
76807;SDS011;65758;45.458;11.062;2023-02-15T10:50:26;52.30;;;27.60;;
76807;SDS011;65758;45.458;11.062;2023-02-15T10:55:28;57.10;;;30.80;;
76807;SDS011;65758;45.458;11.062;2023-02-15T10:58:24;47.70;;;27.90;;
76807;SDS011;65758;45.458;11.062;2023-02-15T11:01:04;47.60;;;27.00;;
76807;SDS011;65758;45.458;11.062;2023-02-15T11:06:14;48.10;;;27.70;;
76807;SDS011;65758;45.458;11.062;2023-02-15T11:08:53;50.50;;;27.70;;
76807;SDS011;65758;45.458;11.062;2023-02-15T11:11:34;50.40;;;28.80;;
76807;SDS011;65758;45.458;11.062;2023-02-15T11:14:10;52.30;;;28.60;;
76807;SDS011;65758;45.458;11.062;2023-02-15T11:16:48;47.30;;;27.10;;
76807;SDS011;65758;45.458;11.062;2023-02-15T11:19:27;52.30;;;29.50;;
76807;SDS011;65758;45.458;11.062;2023-02-15T11:24:30;51.00;;;27.30;;
76807;SDS011;65758;45.458;11.062;2023-02-15T11:27:20;49.20;;;27.30;;
76807;SDS011;65758;45.458;11.062;2023-02-15T11:30:02;47.90;;;27.60;;
76807;SDS011;65758;45.458;11.062;2023-02-15T11:32:39;49.80;;;27.50;;
76807;SDS011;65758;45.458;11.062;2023-02-15T11:37:38;54.20;;;29.40;;
76807;SDS011;65758;45.458;11.062;2023-02-15T11:43:03;48.50;;;26.30;;
76807;SDS011;65758;45.458;11.062;2023-02-15T11:45:34;49.60;;;27.00;;
76807;SDS011;65758;45.458;11.062;2023-02-15T11:48:04;45.70;;;25.80;;
76807;SDS011;65758;45.458;11.062;2023-02-15T11:50:36;47.00;;;26.60;;
76807;SDS011;65758;45.458;11.062;2023-02-15T11:53:04;51.20;;;27.60;;
76807;SDS011;65758;45.458;11.062;2023-02-15T11:55:38;48.40;;;27.60;;
76807;SDS011;65758;45.458;11.062;2023-02-15T12:00:47;50.40;;;28.50;;
76807;SDS011;65758;45.458;11.062;2023-02-15T12:03:22;48.20;;;28.50;;
76807;SDS011;65758;45.458;11.062;2023-02-15T12:05:56;53.10;;;27.60;;
76807;SDS011;65758;45.458;11.062;2023-02-15T12:08:32;51.60;;;28.60;;
76807;SDS011;65758;45.458;11.062;2023-02-15T12:11:07;37.50;;;21.40;;
76807;SDS011;65758;45.458;11.062;2023-02-15T12:13:53;52.10;;;28.30;;
76807;SDS011;65758;45.458;11.062;2023-02-15T12:16:22;47.20;;;26.20;;
76807;SDS011;65758;45.458;11.062;2023-02-15T12:18:50;47.40;;;27.60;;
76807;SDS011;65758;45.458;11.062;2023-02-15T12:21:27;49.80;;;27.40;;
76807;SDS011;65758;45.458;11.062;2023-02-15T12:24:00;51.10;;;28.60;;
76807;SDS011;65758;45.458;11.062;2023-02-15T12:26:31;49.50;;;29.80;;
76807;SDS011;65758;45.458;11.062;2023-02-15T12:29:01;47.30;;;26.30;;
76807;SDS011;65758;45.458;11.062;2023-02-15T12:31:39;47.30;;;25.50;;
76807;SDS011;65758;45.458;11.062;2023-02-15T12:34:29;49.30;;;26.40;;
76807;SDS011;65758;45.458;11.062;2023-02-15T12:37:17;46.90;;;25.30;;
76807;SDS011;65758;45.458;11.062;2023-02-15T12:42:22;46.20;;;26.80;;
76807;SDS011;65758;45.458;11.062;2023-02-15T12:47:25;45.50;;;25.90;;
76807;SDS011;65758;45.458;11.062;2023-02-15T12:50:05;42.30;;;22.50;;
76807;SDS011;65758;45.458;11.062;2023-02-15T12:52:47;47.40;;;26.60;;
76807;SDS011;65758;45.458;11.062;2023-02-15T12:58:04;47.10;;;25.90;;
76807;SDS011;65758;45.458;11.062;2023-02-15T13:00:32;45.70;;;24.10;;
76807;SDS011;65758;45.458;11.062;2023-02-15T13:02:59;47.10;;;26.30;;
76807;SDS011;65758;45.458;11.062;2023-02-15T13:05:39;45.20;;;26.70;;
76807;SDS011;65758;45.458;11.062;2023-02-15T13:08:14;44.70;;;25.20;;
76807;SDS011;65758;45.458;11.062;2023-02-15T13:14:13;47.50;;;26.50;;
76807;SDS011;65758;45.458;11.062;2023-02-15T13:16:52;45.40;;;24.20;;
76807;SDS011;65758;45.458;11.062;2023-02-15T13:19:41;45.60;;;26.90;;
76807;SDS011;65758;45.458;11.062;2023-02-15T13:22:15;47.60;;;26.80;;
76807;SDS011;65758;45.458;11.062;2023-02-15T13:24:47;46.00;;;25.90;;
76807;SDS011;65758;45.458;11.062;2023-02-15T13:27:17;46.00;;;25.70;;
76807;SDS011;65758;45.458;11.062;2023-02-15T13:29:48;44.50;;;25.70;;
76807;SDS011;65758;45.458;11.062;2023-02-15T13:32:22;42.30;;;24.80;;
76807;SDS011;65758;45.458;11.062;2023-02-15T13:34:58;45.30;;;23.80;;
76807;SDS011;65758;45.458;11.062;2023-02-15T13:42:37;47.20;;;25.00;;
76807;SDS011;65758;45.458;11.062;2023-02-15T13:45:26;40.20;;;22.10;;
76807;SDS011;65758;45.458;11.062;2023-02-15T13:55:51;38.70;;;23.10;;
76807;SDS011;65758;45.458;11.062;2023-02-15T13:58:41;37.70;;;22.70;;
76807;SDS011;65758;45.458;11.062;2023-02-15T14:01:21;40.60;;;22.40;;
76807;SDS011;65758;45.458;11.062;2023-02-15T14:04:15;43.00;;;25.50;;
76807;SDS011;65758;45.458;11.062;2023-02-15T14:09:24;41.50;;;22.90;;
76807;SDS011;65758;45.458;11.062;2023-02-15T14:17:23;43.30;;;25.00;;
76807;SDS011;65758;45.458;11.062;2023-02-15T14:20:04;49.40;;;24.90;;
76807;SDS011;65758;45.458;11.062;2023-02-15T14:22:52;45.60;;;23.90;;
76807;SDS011;65758;45.458;11.062;2023-02-15T14:31:14;41.90;;;24.20;;
76807;SDS011;65758;45.458;11.062;2023-02-15T14:33:55;42.10;;;25.00;;
76807;SDS011;65758;45.458;11.062;2023-02-15T14:36:24;42.80;;;23.50;;
76807;SDS011;65758;45.458;11.062;2023-02-15T14:42:14;45.10;;;24.20;;
76807;SDS011;65758;45.458;11.062;2023-02-15T14:45:38;45.20;;;24.40;;
76807;SDS011;65758;45.458;11.062;2023-02-15T14:47:39;46.30;;;24.90;;
76807;SDS011;65758;45.458;11.062;2023-02-15T14:55:41;43.90;;;23.10;;
76807;SDS011;65758;45.458;11.062;2023-02-15T14:58:12;42.30;;;24.10;;
76807;SDS011;65758;45.458;11.062;2023-02-15T15:00:40;44.60;;;24.40;;
76807;SDS011;65758;45.458;11.062;2023-02-15T15:03:16;44.10;;;24.00;;
76807;SDS011;65758;45.458;11.062;2023-02-15T15:05:52;50.60;;;25.70;;
76807;SDS011;65758;45.458;11.062;2023-02-15T15:14:09;52.80;;;24.20;;
76807;SDS011;65758;45.458;11.062;2023-02-15T15:16:57;45.90;;;25.40;;
76807;SDS011;65758;45.458;11.062;2023-02-15T15:20:09;48.90;;;26.00;;
76807;SDS011;65758;45.458;11.062;2023-02-15T15:22:25;44.50;;;24.50;;
76807;SDS011;65758;45.458;11.062;2023-02-15T15:24:54;44.50;;;24.90;;
76807;SDS011;65758;45.458;11.062;2023-02-15T15:49:31;53.80;;;26.40;;
76807;SDS011;65758;45.458;11.062;2023-02-15T15:52:01;52.30;;;26.80;;
76807;SDS011;65758;45.458;11.062;2023-02-15T15:54:35;46.50;;;25.60;;
76807;SDS011;65758;45.458;11.062;2023-02-15T15:57:06;48.20;;;25.60;;
76807;SDS011;65758;45.458;11.062;2023-02-15T16:00:01;51.90;;;25.10;;
76807;SDS011;65758;45.458;11.062;2023-02-15T16:02:49;48.80;;;25.60;;
76807;SDS011;65758;45.458;11.062;2023-02-15T16:05:16;51.50;;;27.80;;
76807;SDS011;65758;45.458;11.062;2023-02-15T16:07:43;50.10;;;26.60;;
76807;SDS011;65758;45.458;11.062;2023-02-15T16:10:20;51.30;;;26.50;;
76807;SDS011;65758;45.458;11.062;2023-02-15T16:12:52;59.30;;;27.70;;
76807;SDS011;65758;45.458;11.062;2023-02-15T16:15:28;57.70;;;28.40;;
76807;SDS011;65758;45.458;11.062;2023-02-15T16:18:02;55.10;;;28.10;;
76807;SDS011;65758;45.458;11.062;2023-02-15T16:20:33;54.40;;;28.20;;
76807;SDS011;65758;45.458;11.062;2023-02-15T16:28:34;51.10;;;28.50;;
76807;SDS011;65758;45.458;11.062;2023-02-15T16:31:10;64.20;;;35.20;;
76807;SDS011;65758;45.458;11.062;2023-02-15T16:33:40;60.50;;;33.00;;
76807;SDS011;65758;45.458;11.062;2023-02-15T16:36:12;55.60;;;30.70;;
76807;SDS011;65758;45.458;11.062;2023-02-15T16:41:13;59.30;;;27.70;;
76807;SDS011;65758;45.458;11.062;2023-02-15T16:43:47;62.40;;;29.60;;
76807;SDS011;65758;45.458;11.062;2023-02-15T16:46:16;56.10;;;28.30;;
76807;SDS011;65758;45.458;11.062;2023-02-15T16:48:49;67.10;;;29.00;;
76807;SDS011;65758;45.458;11.062;2023-02-15T16:51:19;54.80;;;29.00;;
76807;SDS011;65758;45.458;11.062;2023-02-15T16:53:49;57.70;;;29.50;;
76807;SDS011;65758;45.458;11.062;2023-02-15T16:56:22;66.30;;;29.60;;
76807;SDS011;65758;45.458;11.062;2023-02-15T16:58:50;53.10;;;27.80;;
76807;SDS011;65758;45.458;11.062;2023-02-15T17:01:20;49.30;;;24.70;;
76807;SDS011;65758;45.458;11.062;2023-02-15T17:04:10;55.00;;;29.20;;
76807;SDS011;65758;45.458;11.062;2023-02-15T17:06:39;53.80;;;27.40;;
76807;SDS011;65758;45.458;11.062;2023-02-15T17:09:12;46.60;;;24.70;;
76807;SDS011;65758;45.458;11.062;2023-02-15T17:14:12;43.40;;;23.50;;
76807;SDS011;65758;45.458;11.062;2023-02-15T17:16:48;47.90;;;24.00;;
76807;SDS011;65758;45.458;11.062;2023-02-15T17:19:31;58.60;;;30.70;;
76807;SDS011;65758;45.458;11.062;2023-02-15T17:22:06;52.70;;;28.50;;
76807;SDS011;65758;45.458;11.062;2023-02-15T17:24:35;45.90;;;25.40;;
76807;SDS011;65758;45.458;11.062;2023-02-15T17:27:20;49.60;;;26.90;;
76807;SDS011;65758;45.458;11.062;2023-02-15T17:29:57;44.10;;;23.50;;
76807;SDS011;65758;45.458;11.062;2023-02-15T17:32:27;46.70;;;25.50;;
76807;SDS011;65758;45.458;11.062;2023-02-15T17:37:28;48.10;;;24.30;;
76807;SDS011;65758;45.458;11.062;2023-02-15T17:42:47;46.80;;;24.90;;
76807;SDS011;65758;45.458;11.062;2023-02-15T17:45:14;49.00;;;24.70;;
76807;SDS011;65758;45.458;11.062;2023-02-15T17:47:41;52.20;;;26.20;;
76807;SDS011;65758;45.458;11.062;2023-02-15T17:50:15;49.30;;;25.80;;
76807;SDS011;65758;45.458;11.062;2023-02-15T17:52:46;44.00;;;25.20;;
76807;SDS011;65758;45.458;11.062;2023-02-15T17:55:14;48.80;;;25.40;;
76807;SDS011;65758;45.458;11.062;2023-02-15T17:58:03;47.90;;;23.30;;
76807;SDS011;65758;45.458;11.062;2023-02-15T18:03:22;56.30;;;30.30;;
76807;SDS011;65758;45.458;11.062;2023-02-15T18:06:09;67.10;;;34.00;;
76807;SDS011;65758;45.458;11.062;2023-02-15T18:08:57;50.90;;;27.60;;
76807;SDS011;65758;45.458;11.062;2023-02-15T18:11:43;56.70;;;28.60;;
76807;SDS011;65758;45.458;11.062;2023-02-15T18:14:14;51.30;;;29.50;;
76807;SDS011;65758;45.458;11.062;2023-02-15T18:16:41;52.40;;;28.60;;
76807;SDS011;65758;45.458;11.062;2023-02-15T18:19:21;52.80;;;27.40;;
76807;SDS011;65758;45.458;11.062;2023-02-15T18:21:51;53.40;;;26.80;;
76807;SDS011;65758;45.458;11.062;2023-02-15T18:24:19;53.30;;;26.50;;
76807;SDS011;65758;45.458;11.062;2023-02-15T18:26:50;54.90;;;28.00;;
76807;SDS011;65758;45.458;11.062;2023-02-15T18:29:19;48.60;;;26.80;;
76807;SDS011;65758;45.458;11.062;2023-02-15T18:31:47;52.50;;;25.80;;
76807;SDS011;65758;45.458;11.062;2023-02-15T18:34:20;51.40;;;26.00;;
76807;SDS011;65758;45.458;11.062;2023-02-15T18:36:50;56.70;;;27.40;;
76807;SDS011;65758;45.458;11.062;2023-02-15T18:39:23;49.10;;;25.30;;
76807;SDS011;65758;45.458;11.062;2023-02-15T18:41:52;51.50;;;25.80;;
76807;SDS011;65758;45.458;11.062;2023-02-15T18:44:19;55.50;;;26.70;;
76807;SDS011;65758;45.458;11.062;2023-02-15T18:46:46;53.40;;;27.50;;
76807;SDS011;65758;45.458;11.062;2023-02-15T18:49:13;44.40;;;24.50;;
76807;SDS011;65758;45.458;11.062;2023-02-15T18:51:39;52.50;;;26.20;;
76807;SDS011;65758;45.458;11.062;2023-02-15T18:54:16;52.80;;;26.00;;
76807;SDS011;65758;45.458;11.062;2023-02-15T18:59:14;51.70;;;23.70;;